Time;durP1;ratioP1;P1;durP2;ratioP2;P2;SDS_P1;SDS_P2;PMS_P1;PMS_P2;Temp;Humidity;BMP_temperature;BMP_pressure;BME280_temperature;BME280_humidity;BME280_pressure;Samples;Min_cycle;Max_cycle;Signal;HPM_P1;HPM_P2
2022/11/19 00:00:44;;;;;;;1.67;0.93;;;;;;;11.15;87.68;92968.28;5061753;28;20261;-88
2022/11/19 00:03:14;;;;;;;2.20;0.60;;;;;;;11.14;87.01;92959.53;5062995;28;20023;-87
2022/11/19 00:05:41;;;;;;;0.88;0.52;;;;;;;11.10;87.73;92952.53;5062864;28;20044;-88
2022/11/19 00:08:07;;;;;;;3.63;0.52;;;;;;;11.09;84.26;92934.97;5062466;28;20057;-86
2022/11/19 00:10:37;;;;;;;0.70;0.38;;;;;;;11.08;81.97;92936.88;5062748;28;20031;-86
2022/11/19 00:13:04;;;;;;;0.70;0.40;;;;;;;11.17;81.10;92969.53;5062565;28;20083;-86
2022/11/19 00:15:32;;;;;;;0.90;0.40;;;;;;;11.20;82.39;92960.06;5062540;28;20036;-86
2022/11/19 00:17:57;;;;;;;0.82;0.38;;;;;;;11.19;82.37;92966.50;5062535;28;20027;-86
2022/11/19 00:20:24;;;;;;;2.30;0.50;;;;;;;11.21;81.97;92974.94;5062546;28;20025;-86
2022/11/19 00:22:51;;;;;;;1.02;0.40;;;;;;;11.22;81.28;92966.59;5062639;28;20059;-86
2022/11/19 00:25:17;;;;;;;0.50;0.30;;;;;;;11.20;82.49;92978.72;5062296;28;20021;-86
2022/11/19 00:27:42;;;;;;;0.30;0.30;;;;;;;11.19;81.74;92959.28;5062377;28;20112;-86
2022/11/19 00:30:08;;;;;;;1.58;1.00;;;;;;;11.18;82.28;92964.97;5062347;28;20031;-87
2022/11/19 00:32:33;;;;;;;2.75;0.32;;;;;;;11.17;82.48;92958.06;5062377;28;20021;-84
2022/11/19 00:34:59;;;;;;;0.30;0.20;;;;;;;11.16;82.59;92957.28;5062087;28;20032;-85
2022/11/19 00:37:24;;;;;;;0.32;0.28;;;;;;;11.20;82.76;92960.84;5062234;28;20025;-85
2022/11/19 00:39:50;;;;;;;1.80;0.40;;;;;;;11.24;81.94;92963.59;5061098;28;20097;-85
2022/11/19 00:42:15;;;;;;;1.77;0.47;;;;;;;11.28;81.21;92953.03;5061101;28;20028;-86
2022/11/19 00:44:41;;;;;;;1.15;0.45;;;;;;;11.26;81.43;92950.72;5062031;28;20027;-86
2022/11/19 00:47:06;;;;;;;0.63;0.63;;;;;;;11.19;81.08;92950.50;5062194;28;20028;-86
2022/11/19 00:49:32;;;;;;;0.93;0.30;;;;;;;11.15;81.47;92941.63;5062309;28;20029;-85
2022/11/19 00:51:57;;;;;;;0.20;0.20;;;;;;;11.08;81.22;92944.88;5062013;28;20369;-86
2022/11/19 00:54:23;;;;;;;0.95;0.30;;;;;;;11.06;80.86;92951.66;5062098;28;20021;-86
2022/11/19 00:56:48;;;;;;;1.00;0.40;;;;;;;11.15;80.57;92937.06;5062139;28;20040;-86
2022/11/19 00:59:14;;;;;;;0.10;0.10;;;;;;;11.14;79.66;92942.75;5065603;28;20044;-86
2022/11/19 01:01:39;;;;;;;0.25;0.25;;;;;;;11.09;79.38;92961.63;5064298;28;20052;-85
2022/11/19 01:04:05;;;;;;;0.30;0.20;;;;;;;11.07;79.19;92937.19;5065666;28;20082;-84
2022/11/19 01:06:31;;;;;;;0.32;0.32;;;;;;;11.06;80.20;92933.00;5065575;28;20021;-84
2022/11/19 01:08:57;;;;;;;0.38;0.30;;;;;;;10.99;80.08;92941.53;5065664;28;20021;-84
2022/11/19 01:11:26;;;;;;;5.15;0.60;;;;;;;10.96;80.08;92929.69;5065507;28;20037;-86
2022/11/19 01:13:52;;;;;;;0.60;0.32;;;;;;;10.92;79.83;92928.03;5065529;28;20348;-86
2022/11/19 01:16:21;;;;;;;0.40;0.30;;;;;;;10.96;80.31;92956.34;5065453;28;20032;-85
2022/11/19 01:18:48;;;;;;;5.15;0.60;;;;;;;10.95;80.83;92952.13;5065229;28;20343;-86
2022/11/19 01:21:15;;;;;;;1.67;0.65;;;;;;;10.90;81.60;92946.25;5065258;28;20021;-85
2022/11/19 01:23:41;;;;;;;0.90;0.22;;;;;;;10.88;81.61;92948.47;5065195;28;20024;-86
2022/11/19 01:26:08;;;;;;;2.60;0.60;;;;;;;10.84;81.92;92945.69;5065098;28;20013;-85
2022/11/19 01:28:34;;;;;;;2.70;0.75;;;;;;;10.75;82.37;92950.41;5065144;28;20037;-85
2022/11/19 01:31:09;;;;;;;1.83;0.65;;;;;;;10.60;83.72;92957.97;5065288;28;20085;-86
2022/11/19 01:33:35;;;;;;;2.28;0.85;;;;;;;10.52;84.50;92969.50;5065038;28;20357;-86
2022/11/19 01:36:07;;;;;;;0.95;0.50;;;;;;;10.50;85.12;92965.59;5065103;28;20035;-86
2022/11/19 01:38:32;;;;;;;3.47;1.63;;;;;;;10.47;85.28;92982.28;5063921;28;20029;-85
2022/11/19 01:40:59;;;;;;;1.42;0.70;;;;;;;10.46;85.65;92972.72;5064964;28;20058;-85
2022/11/19 01:43:59;;;;;;;1.15;0.52;;;;;;;10.45;85.57;92977.28;5065014;28;20027;-85
2022/11/19 01:46:31;;;;;;;1.55;0.55;;;;;;;10.46;85.54;92992.13;5053430;28;20083;-86
2022/11/19 01:49:07;;;;;;;1.88;0.95;;;;;;;10.37;85.93;92989.59;5064931;28;20025;-84
2022/11/19 01:51:42;;;;;;;3.38;0.82;;;;;;;10.33;85.75;92961.28;5064884;28;20459;-84
2022/11/19 01:54:39;;;;;;;1.95;1.10;;;;;;;10.40;85.78;92964.97;5064607;28;20090;-84
2022/11/19 01:57:12;;;;;;;7.03;1.10;;;;;;;10.41;85.46;92987.81;5055008;28;20321;-85
2022/11/19 01:59:38;;;;;;;7.30;1.17;;;;;;;10.40;85.32;92974.81;5064529;28;20040;-86
2022/11/19 02:02:04;;;;;;;4.57;1.05;;;;;;;10.37;85.23;92980.81;5064595;28;20277;-83
2022/11/19 02:04:31;;;;;;;2.45;1.27;;;;;;;10.44;84.79;92962.38;5064294;28;20096;-83
2022/11/19 02:06:57;;;;;;;4.07;1.38;;;;;;;10.47;84.56;92974.28;5064477;28;20020;-83
2022/11/19 02:09:26;;;;;;;2.10;0.82;;;;;;;10.48;84.78;92959.84;5064473;28;20345;-85
2022/11/19 02:12:04;;;;;;;4.15;0.90;;;;;;;10.48;84.46;92965.94;5063169;28;20196;-87
2022/11/19 02:14:47;;;;;;;2.72;0.93;;;;;;;10.49;84.41;92967.50;5064299;28;20020;-86
2022/11/19 02:17:17;;;;;;;4.25;1.02;;;;;;;10.52;83.52;92988.16;5064074;28;20024;-87
2022/11/19 02:20:11;;;;;;;3.03;1.27;;;;;;;10.53;83.88;92991.59;5064443;28;20219;-86
2022/11/19 02:22:45;;;;;;;1.77;0.90;;;;;;;10.54;83.86;92996.59;5063972;28;20012;-86
2022/11/19 02:25:32;;;;;;;2.40;0.82;;;;;;;10.54;83.51;92980.63;5064090;28;20240;-85
2022/11/19 02:28:26;;;;;;;6.88;0.88;;;;;;;10.50;83.30;93001.03;5063873;28;20025;-86
2022/11/19 02:30:55;;;;;;;3.92;0.80;;;;;;;10.51;83.58;92999.16;5064062;28;20021;-86
2022/11/19 02:33:27;;;;;;;4.43;1.45;;;;;;;10.49;83.48;93012.78;5063711;28;20084;-86
2022/11/19 02:36:07;;;;;;;2.90;1.50;;;;;;;10.47;83.54;93028.34;5062809;28;20029;-86
2022/11/19 02:38:42;;;;;;;6.07;1.50;;;;;;;10.53;83.48;93021.69;5063740;28;20028;-84
2022/11/19 02:41:32;;;;;;;2.95;1.30;;;;;;;10.58;83.36;93034.78;5063809;28;20377;-84
2022/11/19 02:44:57;;;;;;;5.53;1.25;;;;;;;10.62;83.23;93029.56;5063484;28;20032;-84
2022/11/19 02:46:49;;;;;;;3.13;1.30;;;;;;;10.62;82.51;93035.69;5063519;28;20091;-84
2022/11/19 02:49:18;;;;;;;3.80;1.40;;;;;;;10.55;82.64;93029.34;5063398;28;20028;-85
2022/11/19 02:51:45;;;;;;;1.30;0.77;;;;;;;10.52;82.89;93038.78;5063815;28;20025;-88
2022/11/19 02:54:10;;;;;;;3.65;0.70;;;;;;;10.57;82.85;93053.78;5063883;28;20086;-87
2022/11/19 02:56:53;;;;;;;1.92;1.05;;;;;;;10.50;82.73;93054.31;5063619;28;20033;-88
2022/11/19 03:05:20;;;;;;;1.83;0.77;;;;;;;10.49;82.81;93073.31;5053458;28;20028;-87
2022/11/19 03:07:46;;;;;;;1.58;0.82;;;;;;;10.48;82.95;93093.03;5063534;28;20028;-87
2022/11/19 03:10:14;;;;;;;5.25;1.05;;;;;;;10.44;82.96;93082.25;5063382;28;20027;-87
2022/11/19 03:16:40;;;;;;;2.97;0.90;;;;;;;10.48;82.97;93071.72;5063181;28;20028;-87
2022/11/19 03:18:46;;;;;;;2.20;1.00;;;;;;;10.43;83.04;93070.84;5063342;28;20063;-88
2022/11/19 03:21:28;;;;;;;4.03;1.45;;;;;;;10.37;83.01;93068.72;5062930;28;20097;-88
2022/11/19 03:23:59;;;;;;;3.67;1.50;;;;;;;10.37;83.04;93084.72;5063277;28;20104;-87
2022/11/19 03:26:31;;;;;;;5.05;1.63;;;;;;;10.33;82.99;93084.59;5063182;28;20020;-87
2022/11/19 03:29:01;;;;;;;6.32;1.75;;;;;;;10.33;82.81;93081.16;5063364;28;20021;-87
2022/11/19 03:31:29;;;;;;;4.03;2.17;;;;;;;10.34;82.93;93085.34;5063185;28;20021;-87
2022/11/19 03:34:00;;;;;;;4.20;2.10;;;;;;;10.36;82.88;93088.47;5063152;28;20311;-88
2022/11/19 03:36:38;;;;;;;5.57;2.38;;;;;;;10.38;82.75;93088.91;5063236;28;20024;-88
2022/11/19 03:39:09;;;;;;;5.25;1.90;;;;;;;10.39;82.63;93090.47;5061747;28;20024;-86
2022/11/19 03:41:36;;;;;;;5.82;2.70;;;;;;;10.38;82.43;93099.56;5062874;28;20323;-87
2022/11/19 03:44:14;;;;;;;5.93;2.78;;;;;;;10.35;82.25;93097.59;5061801;28;20315;-88
2022/11/19 03:46:43;;;;;;;4.85;2.17;;;;;;;10.33;82.45;93091.81;5062944;28;20036;-88
2022/11/19 03:49:10;;;;;;;5.55;2.53;;;;;;;10.36;82.61;93107.13;5063185;28;20035;-88
2022/11/19 03:52:10;;;;;;;6.20;2.42;;;;;;;10.31;82.60;93104.69;5063275;28;20029;-88
2022/11/19 03:54:37;;;;;;;6.00;2.75;;;;;;;10.33;82.96;93105.13;5061742;28;20040;-88
2022/11/19 03:57:05;;;;;;;6.75;2.60;;;;;;;10.36;82.84;93117.78;5063098;28;20070;-89
2022/11/19 03:59:30;;;;;;;6.80;2.88;;;;;;;10.34;82.68;93120.78;5062929;28;20335;-88
2022/11/19 04:02:01;;;;;;;5.00;2.97;;;;;;;10.36;82.30;93113.25;5063247;28;20025;-88
2022/11/19 04:04:36;;;;;;;8.65;4.07;;;;;;;10.36;82.47;93125.75;5063217;28;20043;-87
2022/11/19 04:07:17;;;;;;;7.07;4.13;;;;;;;10.36;82.25;93123.91;5061538;28;20227;-87
2022/11/19 04:09:43;;;;;;;5.50;3.70;;;;;;;10.31;81.70;93115.31;5062591;28;20097;-87
2022/11/19 04:12:20;;;;;;;5.85;3.53;;;;;;;10.30;82.10;93124.41;5061346;28;20044;-86
2022/11/19 04:14:46;;;;;;;10.15;4.75;;;;;;;10.30;82.11;93124.41;5062386;28;20330;-87
2022/11/19 04:17:12;;;;;;;10.57;4.53;;;;;;;10.31;81.89;93141.97;5062486;28;20024;-87
2022/11/19 04:19:38;;;;;;;9.50;4.05;;;;;;;10.24;81.87;93151.25;5061266;28;20143;-87
2022/11/19 04:22:03;;;;;;;7.85;4.10;;;;;;;10.17;82.02;93152.88;5062559;28;20070;-87
2022/11/19 04:24:29;;;;;;;8.43;4.30;;;;;;;10.20;82.19;93155.66;5062442;28;20369;-87
2022/11/19 04:26:54;;;;;;;8.10;4.47;;;;;;;10.17;82.00;93150.97;5062376;28;20025;-87
2022/11/19 04:29:20;;;;;;;5.88;3.47;;;;;;;10.15;82.43;93150.53;5062226;28;20028;-87
2022/11/19 04:31:45;;;;;;;10.05;3.80;;;;;;;10.19;82.73;93153.31;5062388;28;20028;-85
2022/11/19 04:34:11;;;;;;;7.43;3.90;;;;;;;10.18;82.05;93155.22;5066288;28;20223;-85
2022/11/19 04:36:39;;;;;;;7.28;3.97;;;;;;;10.13;82.42;93171.38;5065862;28;20029;-84
2022/11/19 04:39:04;;;;;;;8.48;4.53;;;;;;;10.13;82.77;93166.03;5066011;28;20025;-84
2022/11/19 04:41:30;;;;;;;11.18;4.53;;;;;;;10.13;83.05;93168.72;5066022;28;20268;-84
2022/11/19 04:43:55;;;;;;;8.38;3.45;;;;;;;10.13;83.19;93162.63;5066382;28;20051;-84
2022/11/19 04:46:21;;;;;;;9.05;4.40;;;;;;;10.13;83.22;93168.72;5065829;28;20024;-84
2022/11/19 04:48:46;;;;;;;8.38;3.47;;;;;;;10.15;83.02;93171.81;5066444;28;20087;-89
2022/11/19 04:51:12;;;;;;;7.65;3.08;;;;;;;10.13;83.42;93174.03;5066863;28;20088;-89
2022/11/19 04:53:37;;;;;;;7.93;3.03;;;;;;;10.16;83.26;93184.03;5066318;28;20021;-89
2022/11/19 04:56:03;;;;;;;6.28;3.00;;;;;;;10.16;82.99;93168.06;5066502;28;20025;-90
2022/11/19 04:58:28;;;;;;;6.35;2.90;;;;;;;10.17;83.34;93184.81;5065066;28;20275;-87
2022/11/19 05:00:54;;;;;;;6.32;2.95;;;;;;;10.16;83.30;93176.06;5066330;28;20025;-88
2022/11/19 05:03:19;;;;;;;6.65;2.70;;;;;;;10.19;83.29;93188.72;5065815;28;20020;-88
2022/11/19 05:05:45;;;;;;;6.05;2.35;;;;;;;10.13;83.83;93189.25;5065824;28;20017;-87
2022/11/19 05:08:10;;;;;;;4.45;2.30;;;;;;;10.19;83.62;93199.34;5065924;28;20021;-88
2022/11/19 05:10:36;;;;;;;5.20;2.85;;;;;;;10.19;83.35;93210.00;5065832;28;20071;-88
2022/11/19 05:13:01;;;;;;;5.20;2.70;;;;;;;10.21;83.25;93218.44;5066030;28;20020;-89
2022/11/19 05:15:27;;;;;;;5.53;2.78;;;;;;;10.23;83.10;93228.78;5065724;28;20291;-84
2022/11/19 05:17:52;;;;;;;4.75;2.95;;;;;;;10.23;82.71;93240.22;5065267;28;20098;-87
2022/11/19 05:20:18;;;;;;;7.85;3.13;;;;;;;10.21;82.63;93252.31;5065450;28;20035;-88
2022/11/19 05:22:43;;;;;;;4.63;2.45;;;;;;;10.21;82.58;93253.06;5066101;28;20028;-90
2022/11/19 05:25:08;;;;;;;9.63;2.92;;;;;;;10.22;82.22;93265.31;5065369;28;20023;-86
2022/11/19 05:27:34;;;;;;;5.32;2.95;;;;;;;10.18;82.00;93269.72;5065304;28;20341;-89
2022/11/19 05:29:59;;;;;;;5.80;3.15;;;;;;;10.15;82.12;93275.69;5065794;28;20032;-88
2022/11/19 05:32:25;;;;;;;5.70;2.90;;;;;;;10.16;81.98;93290.56;5064699;28;20021;-88
2022/11/19 05:34:50;;;;;;;7.00;3.35;;;;;;;10.16;81.90;93287.13;5065540;28;20029;-87
2022/11/19 05:37:15;;;;;;;9.30;3.70;;;;;;;10.19;82.03;93291.78;5065360;28;20051;-88
2022/11/19 05:39:41;;;;;;;5.13;3.05;;;;;;;10.16;82.31;93289.78;5065458;28;20043;-89
2022/11/19 05:42:06;;;;;;;7.70;3.03;;;;;;;10.20;82.53;93293.38;5065517;28;20025;-89
2022/11/19 05:44:32;;;;;;;6.93;3.90;;;;;;;10.21;82.58;93302.91;5064886;28;20039;-88
2022/11/19 05:46:58;;;;;;;7.85;3.92;;;;;;;10.23;82.58;93308.69;5065405;28;20021;-88
2022/11/19 05:49:24;;;;;;;6.93;4.00;;;;;;;10.26;82.83;93310.72;5065511;28;20025;-88
2022/11/19 05:51:49;;;;;;;7.90;4.57;;;;;;;10.28;82.66;93310.38;5065227;28;20031;-88
2022/11/19 05:54:15;;;;;;;8.45;4.32;;;;;;;10.32;82.71;93319.31;5065025;28;20024;-88
2022/11/19 05:56:40;;;;;;;7.97;4.63;;;;;;;10.28;82.83;93319.16;5065203;28;20031;-88
2022/11/19 05:59:05;;;;;;;8.05;4.63;;;;;;;10.34;82.54;93311.78;5064826;28;20386;-88
2022/11/19 06:01:31;;;;;;;9.52;4.35;;;;;;;10.36;82.47;93310.38;5063925;28;20104;-88
2022/11/19 06:03:56;;;;;;;6.38;3.90;;;;;;;10.37;82.25;93309.25;5064887;28;20227;-88
2022/11/19 06:06:22;;;;;;;9.27;4.35;;;;;;;10.42;81.88;93314.41;5064874;28;20013;-88
2022/11/19 06:08:48;;;;;;;7.07;4.07;;;;;;;10.46;81.73;93313.72;5064563;28;20044;-87
2022/11/19 06:13:59;;;;;;;10.50;6.60;;;;;;;10.38;81.76;93323.34;5064369;28;20024;-87
2022/11/19 06:16:25;;;;;;;8.40;4.43;;;;;;;10.36;81.73;93338.88;5064928;28;20262;-89
2022/11/19 06:18:50;;;;;;;8.15;4.30;;;;;;;10.39;82.07;93340.91;5064214;28;20024;-86
2022/11/19 06:21:16;;;;;;;10.07;5.53;;;;;;;10.41;81.97;93360.00;5064331;28;20040;-86
2022/11/19 06:23:41;;;;;;;14.15;5.80;;;;;;;10.39;82.10;93364.88;5063070;28;20059;-85
2022/11/19 06:26:08;;;;;;;13.77;5.30;;;;;;;10.44;81.94;93384.13;5064057;28;20211;-81
2022/11/19 06:28:33;;;;;;;16.83;7.38;;;;;;;10.44;81.78;93385.97;5063994;28;20028;-87
2022/11/19 06:30:58;;;;;;;24.65;10.23;;;;;;;10.45;81.87;93382.22;5063953;28;20200;-82
2022/11/19 06:33:24;;;;;;;30.80;15.25;;;;;;;10.47;81.64;93382.69;5063916;28;20040;-81
2022/11/19 06:35:49;;;;;;;21.45;10.05;;;;;;;10.50;81.37;93384.72;5063570;28;20036;-85
2022/11/19 06:38:16;;;;;;;12.82;6.57;;;;;;;10.52;81.36;93390.50;5062658;28;20307;-86
2022/11/19 06:40:42;;;;;;;11.43;6.45;;;;;;;10.53;81.22;93394.72;5062719;28;20327;-85
2022/11/19 06:43:07;;;;;;;20.35;10.82;;;;;;;10.55;81.31;93397.84;5063926;28;20043;-82
2022/11/19 06:45:33;;;;;;;117.65;35.40;;;;;;;10.58;81.76;93407.88;5063755;28;20017;-83
2022/11/19 06:47:58;;;;;;;132.52;40.40;;;;;;;10.64;81.91;93417.22;5063509;28;20311;-85
2022/11/19 06:50:23;;;;;;;98.00;39.95;;;;;;;10.68;81.79;93421.91;5063755;28;20024;-85
2022/11/19 06:52:49;;;;;;;125.38;60.58;;;;;;;10.74;81.80;93420.59;5063523;28;20105;-85
2022/11/19 06:55:14;;;;;;;73.93;30.60;;;;;;;10.80;81.72;93421.97;5061613;28;20029;-85
2022/11/19 06:57:40;;;;;;;27.13;13.75;;;;;;;10.84;80.83;93420.22;5063474;28;20051;-85
2022/11/19 07:00:06;;;;;;;15.95;7.32;;;;;;;10.90;80.86;93423.47;5063295;28;20020;-85
2022/11/19 07:02:31;;;;;;;16.77;8.90;;;;;;;10.89;81.15;93422.69;5063454;28;20272;-86
2022/11/19 07:04:56;;;;;;;17.98;8.60;;;;;;;10.92;81.49;93415.94;5063510;28;20321;-80
2022/11/19 07:07:22;;;;;;;12.45;7.22;;;;;;;11.01;81.80;93419.28;5063309;28;20324;-77
2022/11/19 07:09:47;;;;;;;13.38;6.68;;;;;;;11.06;81.74;93429.00;5063225;28;20044;-78
2022/11/19 07:12:12;;;;;;;23.45;14.35;;;;;;;11.15;81.69;93429.69;5063341;28;20032;-76
2022/11/19 07:14:38;;;;;;;19.23;11.52;;;;;;;11.21;81.53;93425.72;5063174;28;20020;-76
2022/11/19 07:17:05;;;;;;;14.77;10.25;;;;;;;11.29;81.54;93430.22;5063068;28;20049;-76
2022/11/19 07:19:31;;;;;;;17.35;8.18;;;;;;;11.41;81.48;93440.94;5063298;28;20037;-78
2022/11/19 07:21:56;;;;;;;11.95;6.53;;;;;;;11.53;81.17;93434.09;5063177;28;20017;-78
2022/11/19 07:24:21;;;;;;;13.48;6.90;;;;;;;11.62;80.96;93430.22;5062837;28;20039;-80
2022/11/19 07:26:47;;;;;;;16.45;9.32;;;;;;;11.72;80.40;93421.00;5061835;28;20111;-75
2022/11/19 07:29:14;;;;;;;14.32;8.43;;;;;;;11.82;80.49;93428.63;5063256;28;20024;-74
2022/11/19 07:31:40;;;;;;;20.30;10.15;;;;;;;11.89;80.17;93422.75;5062943;28;20048;-74
2022/11/19 07:34:09;;;;;;;23.25;8.82;;;;;;;12.00;79.18;93425.75;5062890;28;20037;-74
2022/11/19 07:36:36;;;;;;;22.90;8.82;;;;;;;12.09;78.39;93417.63;5062397;28;20044;-74
2022/11/19 07:39:02;;;;;;;20.25;8.02;;;;;;;12.15;78.61;93427.00;5061845;28;20029;-75
2022/11/19 07:44:12;;;;;;;10.80;5.53;;;;;;;12.26;78.26;93440.72;5062508;28;20044;-74
2022/11/19 07:46:37;;;;;;;11.93;6.03;;;;;;;12.33;78.19;93432.91;5061688;28;20021;-74
2022/11/19 07:49:02;;;;;;;14.52;6.18;;;;;;;12.43;77.83;93437.81;5061427;28;20291;-74
2022/11/19 07:51:28;;;;;;;10.35;5.55;;;;;;;12.48;77.48;93442.94;5061696;28;20062;-74
2022/11/19 07:53:54;;;;;;;13.27;6.13;;;;;;;12.58;77.00;93434.47;5061801;28;20311;-74
2022/11/19 07:56:20;;;;;;;13.68;5.43;;;;;;;12.65;76.75;93440.03;5062296;28;20025;-74
2022/11/19 07:58:46;;;;;;;10.98;5.90;;;;;;;12.74;76.76;93433.78;5062375;28;20132;-74
2022/11/19 08:01:20;;;;;;;11.50;4.38;;;;;;;12.83;75.88;93445.13;5062641;28;20066;-74
2022/11/19 08:03:46;;;;;;;8.30;4.25;;;;;;;12.87;75.03;93459.41;5062707;28;20098;-74
2022/11/19 08:06:41;;;;;;;5.18;3.10;;;;;;;12.96;73.31;93462.72;5063201;28;20020;-75
2022/11/19 08:09:06;;;;;;;4.97;2.40;;;;;;;12.94;71.82;93459.59;5061903;28;20098;-75
2022/11/19 08:11:32;;;;;;;5.75;2.30;;;;;;;13.00;71.95;93455.56;5066607;28;20315;-76
2022/11/19 08:14:01;;;;;;;4.60;2.80;;;;;;;13.02;72.82;93463.28;5067083;28;20070;-83
2022/11/19 08:19:14;;;;;;;5.30;3.20;;;;;;;13.16;73.22;93469.03;5065901;28;20035;-81
2022/11/19 08:21:41;;;;;;;5.07;3.13;;;;;;;13.21;72.57;93478.75;5066115;28;20025;-84
2022/11/19 08:24:08;;;;;;;4.60;3.28;;;;;;;13.15;72.79;93477.41;5066351;28;20025;-81
2022/11/19 08:26:34;;;;;;;15.00;3.38;;;;;;;13.20;73.04;93475.25;5066430;28;20044;-81
2022/11/19 08:29:00;;;;;;;6.00;3.20;;;;;;;13.16;72.37;93462.91;5065333;28;20262;-81
2022/11/19 08:31:25;;;;;;;5.88;4.05;;;;;;;13.13;73.13;93464.38;5065293;28;20032;-80
2022/11/19 08:33:51;;;;;;;5.93;2.65;;;;;;;13.18;73.08;93482.06;5065945;28;20021;-80
2022/11/19 08:36:17;;;;;;;4.13;2.55;;;;;;;13.19;72.38;93473.72;5065950;28;20204;-81
2022/11/19 08:38:43;;;;;;;6.78;3.58;;;;;;;13.25;72.91;93482.31;5065798;28;20036;-80
2022/11/19 08:43:52;;;;;;;5.88;3.30;;;;;;;13.37;72.72;93481.50;5066006;28;20079;-79
2022/11/19 08:46:17;;;;;;;8.38;3.60;;;;;;;13.46;72.60;93481.38;5066009;28;20020;-81
2022/11/19 08:48:43;;;;;;;5.25;3.33;;;;;;;13.54;72.54;93472.41;5065950;28;20338;-81
2022/11/19 08:51:13;;;;;;;5.20;3.20;;;;;;;13.69;72.37;93478.94;5065723;28;20043;-80
2022/11/19 08:53:39;;;;;;;6.95;3.40;;;;;;;13.83;70.02;93469.38;5065924;28;20021;-81
2022/11/19 08:56:05;;;;;;;5.82;3.25;;;;;;;13.81;69.23;93471.63;5065742;28;20025;-81
2022/11/19 08:58:30;;;;;;;9.43;3.22;;;;;;;13.88;69.95;93480.97;5065561;28;20235;-80
2022/11/19 09:00:56;;;;;;;5.32;3.15;;;;;;;13.95;69.72;93483.84;5065943;28;20021;-81
2022/11/19 09:03:21;;;;;;;4.60;2.95;;;;;;;14.05;69.46;93489.47;5065608;28;20021;-81
2022/11/19 09:05:47;;;;;;;4.25;2.75;;;;;;;14.13;68.73;93484.31;5065652;28;20028;-80
2022/11/19 09:08:12;;;;;;;7.22;3.10;;;;;;;14.20;68.83;93477.22;5065541;28;20040;-81
2022/11/19 09:10:38;;;;;;;5.80;3.05;;;;;;;14.32;67.71;93478.25;5065711;28;20052;-81
2022/11/19 09:13:04;;;;;;;9.98;2.78;;;;;;;14.36;68.04;93490.63;5064162;28;20036;-81
2022/11/19 09:15:30;;;;;;;3.90;2.30;;;;;;;14.45;68.08;93496.59;5065542;28;20044;-81
2022/11/19 09:17:55;;;;;;;3.63;2.00;;;;;;;14.57;67.86;93500.34;5064807;28;20100;-81
2022/11/19 09:20:21;;;;;;;4.05;2.05;;;;;;;14.63;68.28;93497.06;5065246;28;20028;-80
2022/11/19 09:22:47;;;;;;;3.75;1.92;;;;;;;14.73;66.51;93493.06;5065415;28;20021;-80
2022/11/19 09:25:12;;;;;;;3.88;2.08;;;;;;;14.73;66.25;93494.97;5065270;28;20027;-81
2022/11/19 09:27:38;;;;;;;4.45;2.33;;;;;;;14.74;64.64;93480.44;5065365;28;20017;-81
2022/11/19 09:30:05;;;;;;;4.72;2.30;;;;;;;14.64;65.09;93479.84;5065082;28;20020;-80
2022/11/19 09:32:31;;;;;;;3.72;1.88;;;;;;;14.62;67.59;93479.41;5065099;28;20020;-80
2022/11/19 09:34:56;;;;;;;4.35;1.83;;;;;;;14.63;67.72;93464.88;5065204;28;20067;-80
2022/11/19 09:37:22;;;;;;;3.35;2.00;;;;;;;14.70;67.27;93482.28;5064991;28;20028;-80
2022/11/19 09:39:47;;;;;;;3.03;1.60;;;;;;;14.77;67.83;93471.69;5064975;28;20052;-81
2022/11/19 09:42:17;;;;;;;3.03;1.70;;;;;;;14.87;67.70;93455.06;5065038;28;20315;-81
2022/11/19 09:45:16;;;;;;;5.53;1.80;;;;;;;14.98;65.96;93460.66;5064911;28;20088;-80
2022/11/19 09:48:21;;;;;;;4.68;2.47;;;;;;;15.08;66.29;93449.38;5065005;28;20021;-80
2022/11/19 09:50:58;;;;;;;5.68;2.40;;;;;;;15.18;66.46;93442.69;5064761;28;20301;-80
2022/11/19 09:53:30;;;;;;;3.97;2.40;;;;;;;15.27;66.03;93421.78;5064710;28;20033;-81
2022/11/19 09:55:58;;;;;;;4.47;2.33;;;;;;;15.39;66.10;93420.88;5064604;28;20032;-80
2022/11/19 09:58:35;;;;;;;6.53;2.42;;;;;;;15.42;63.94;93423.59;5064715;28;20052;-80
2022/11/19 10:01:01;;;;;;;4.00;2.03;;;;;;;15.53;64.63;93431.09;5064637;28;20286;-81
2022/11/19 10:03:26;;;;;;;4.82;2.90;;;;;;;15.69;65.10;93422.97;5064663;28;20029;-80
2022/11/19 10:06:05;;;;;;;3.20;2.17;;;;;;;15.91;62.78;93426.84;5064519;28;20086;-81
2022/11/19 10:08:50;;;;;;;4.25;2.70;;;;;;;16.09;62.51;93413.72;5064207;28;20315;-80
2022/11/19 10:11:51;;;;;;;4.70;2.65;;;;;;;16.29;61.76;93417.13;5064454;28;20025;-81
2022/11/19 10:14:42;;;;;;;4.90;1.60;;;;;;;16.46;60.61;93413.94;5064241;28;20032;-81
2022/11/19 10:17:26;;;;;;;3.65;1.73;;;;;;;16.65;59.62;93408.47;5064102;28;20024;-80
2022/11/19 10:20:02;;;;;;;4.40;1.50;;;;;;;16.83;58.57;93402.59;5064255;28;20090;-81
2022/11/19 10:22:53;;;;;;;5.90;1.63;;;;;;;16.98;57.98;93407.03;5064107;28;20215;-81
2022/11/19 10:25:28;;;;;;;6.90;1.58;;;;;;;17.17;57.50;93411.50;5064179;28;20032;-80
2022/11/19 10:28:07;;;;;;;11.00;2.30;;;;;;;17.31;57.39;93413.63;5064193;28;20091;-80
2022/11/19 10:30:33;;;;;;;2.38;1.52;;;;;;;17.43;57.35;93408.00;5062950;28;20021;-81
2022/11/19 10:33:15;;;;;;;6.75;1.70;;;;;;;17.62;54.40;93401.66;5063674;28;20049;-81
2022/11/19 10:35:49;;;;;;;5.43;1.70;;;;;;;17.64;54.44;93404.75;5062788;28;20028;-81
2022/11/19 10:38:25;;;;;;;2.85;1.40;;;;;;;17.60;53.95;93395.84;5063685;28;20096;-81
2022/11/19 10:40:58;;;;;;;3.00;1.30;;;;;;;17.65;53.87;93400.16;5063718;28;20043;-81
2022/11/19 10:43:34;;;;;;;5.75;1.92;;;;;;;17.72;55.63;93394.84;5063779;28;20032;-80
2022/11/19 10:46:03;;;;;;;6.07;1.65;;;;;;;17.85;55.40;93390.00;5063863;28;20088;-81
2022/11/19 10:48:38;;;;;;;5.53;1.90;;;;;;;17.91;54.84;93393.13;5063970;28;20024;-81
2022/11/19 10:51:11;;;;;;;7.43;2.35;;;;;;;17.94;55.00;93392.41;5063524;28;20052;-81
2022/11/19 10:53:39;;;;;;;5.20;2.33;;;;;;;18.02;55.17;93378.59;5063401;28;20017;-81
2022/11/19 10:56:11;;;;;;;5.38;1.90;;;;;;;18.02;53.99;93384.00;5063372;28;20063;-80
2022/11/19 10:58:43;;;;;;;9.40;2.30;;;;;;;18.05;54.09;93387.88;5063420;28;20049;-81
2022/11/19 11:01:22;;;;;;;4.05;1.63;;;;;;;18.02;54.02;93384.00;5063522;28;20029;-81
2022/11/19 11:03:53;;;;;;;7.65;2.45;;;;;;;17.99;54.49;93378.56;5063390;28;20044;-81
2022/11/19 11:06:19;;;;;;;2.80;1.73;;;;;;;17.93;54.35;93374.66;5063224;28;20096;-81
2022/11/19 11:08:54;;;;;;;5.85;1.70;;;;;;;17.83;54.08;93368.81;5063012;28;20055;-81
2022/11/19 11:14:50;;;;;;;6.22;2.28;;;;;;;17.94;54.88;93381.63;5063332;28;20079;-81
2022/11/19 11:17:01;;;;;;;9.77;2.40;;;;;;;18.08;54.12;93375.59;5063077;28;20035;-80
2022/11/19 11:19:28;;;;;;;5.70;2.08;;;;;;;18.13;53.30;93367.91;5063273;28;20059;-80
2022/11/19 11:21:56;;;;;;;5.25;1.85;;;;;;;18.09;53.41;93369.03;5063243;28;20027;-81
2022/11/19 11:24:31;;;;;;;6.45;2.47;;;;;;;17.95;53.61;93375.84;5061804;28;20104;-81
2022/11/19 11:27:17;;;;;;;5.57;1.95;;;;;;;17.90;54.05;93383.50;5063251;28;20017;-81
2022/11/19 11:29:42;;;;;;;6.15;2.95;;;;;;;17.64;53.64;93371.66;5062932;28;20025;-81
2022/11/19 11:32:26;;;;;;;8.07;4.13;;;;;;;17.52;54.45;93366.50;5063049;28;20025;-81
2022/11/19 11:34:52;;;;;;;8.13;3.15;;;;;;;17.39;54.21;93369.47;5061515;28;20402;-81
2022/11/19 11:37:17;;;;;;;5.07;2.05;;;;;;;17.44;54.67;93373.75;5062954;28;20025;-81
2022/11/19 11:39:43;;;;;;;11.70;2.80;;;;;;;17.44;54.67;93363.75;5062782;28;20360;-81
2022/11/19 11:42:11;;;;;;;10.07;2.20;;;;;;;17.54;54.73;93350.75;5062503;28;20242;-81
2022/11/19 11:44:46;;;;;;;9.13;1.73;;;;;;;17.58;54.80;93349.66;5062821;28;20056;-81
2022/11/19 11:47:13;;;;;;;3.90;2.25;;;;;;;17.69;54.82;93359.75;5062678;28;20020;-81
2022/11/19 11:49:42;;;;;;;8.30;2.65;;;;;;;17.78;55.69;93352.94;5062478;28;20024;-81
2022/11/19 11:52:10;;;;;;;8.85;2.95;;;;;;;17.78;53.84;93368.34;5062661;28;20032;-81
2022/11/19 11:54:37;;;;;;;12.75;3.13;;;;;;;17.71;54.58;93360.97;5062734;28;20047;-81
2022/11/19 11:57:21;;;;;;;6.13;2.65;;;;;;;17.70;55.68;93356.69;5061339;28;20319;-81
2022/11/19 11:59:46;;;;;;;9.23;4.43;;;;;;;17.76;55.40;93338.28;5062651;28;20032;-81
2022/11/19 12:02:28;;;;;;;15.43;4.85;;;;;;;17.68;55.48;93350.13;5062346;28;20090;-81
2022/11/19 12:04:55;;;;;;;10.25;3.80;;;;;;;17.63;56.33;93359.34;5062721;28;20215;-81